Westerland Sylt Airport

EDXW · Schleswig-Holstein, Alemania

METAR pasados EDXW · Westerland Sylt Airport

A continuación puedes ver los METAR de los últimos días. Selecciona un año para ver los METAR más antiguos, desde el año 2007 en adelante.

23 de abril de 2024

Hora Código Tiempo Temp. Visibilidad Cielo nuboso Viento METAR/SPECI
04:20
V
5 °C 10 km+ 6.200 ft 290° 290° 7 kt METAR EDXW 230220Z AUTO 29007KT 9999 // FEW033/// BKN062/// 05/M00 Q1021
03:50
V
4 °C 10 km+ - 310° 310° 7 kt METAR EDXW 230150Z AUTO 31007KT 9999 // FEW038/// SCT058/// 04/M01 Q1022
03:20
V
5 °C 10 km+ 3.700 ft 300° 300° 7 kt METAR EDXW 230120Z AUTO 30007KT 9999 // BKN037/// 05/M02 Q1022
02:50
V
5 °C 10 km+ - 310° 310° 7 kt METAR EDXW 230050Z AUTO 31007KT 9999 // SCT038/// 05/M02 Q1022
02:20
V
5 °C 10 km+ - 320° 320° 6 kt METAR EDXW 230020Z AUTO 32006KT 9999 // FEW038/// 05/M02 Q1022
01:50
V
4 °C 10 km+ - 320° 320° 7 kt METAR EDXW 222350Z AUTO 32007KT 9999 // FEW039/// 04/M02 Q1023
01:20
V
4 °C 10 km+ - 330° 330° 6 kt METAR EDXW 222320Z AUTO 33006KT 9999 // SCT039/// 04/M02 Q1023
00:50
V
4 °C 10 km+ - 340° 340° 7 kt METAR EDXW 222250Z AUTO 34007KT 9999 // SCT038/// 04/M02 Q1023
00:20
V
4 °C 10 km+ 3.700 ft 360° 360° 6 kt METAR EDXW 222220Z AUTO 36006KT 9999 // BKN037/// 04/M01 Q1023

22 de abril de 2024

Hora Código Tiempo Temp. Visibilidad Cielo nuboso Viento METAR/SPECI
23:50
V
5 °C 10 km+ 3.800 ft 360° 360° 7 kt METAR EDXW 222150Z AUTO 36007KT 9999 // BKN038/// BKN057/// 05/M01 Q1023
23:20
V
4 °C 10 km+ 5.600 ft 360° 360° 7 kt METAR EDXW 222120Z AUTO 36007KT 9999 // SCT038/// BKN056/// 04/M01 Q1023
22:50
V
4 °C 10 km+ - 360° 360° 7 kt METAR EDXW 222050Z AUTO 36007KT 9999 // FEW040/// SCT056/// 04/M02 Q1023
22:20
V
5 °C 10 km+ - 350° 350° 8 kt METAR EDXW 222020Z AUTO 35008KT 9999 // FEW040/// SCT060/// 05/M02 Q1024
21:50
V
5 °C 10 km+ - 360° 360° 9 kt METAR EDXW 221950Z AUTO 36009KT 9999 // SCT062/// 05/M01 Q1024
21:20
V
5 °C 10 km+ - 010° 010° 7 kt METAR EDXW 221920Z AUTO 01007KT 9999 // FEW044/// 05/M02 Q1024
20:50
V
6 °C 10 km+ 4.500 ft 350° 350° 9 kt METAR EDXW 221850Z AUTO 35009KT 320V020 9999 // BKN045/// 06/M02 Q1024
20:20
V
6 °C 10 km+ 4.300 ft 300° 300° 3 kt METAR EDXW 221820Z AUTO 30003KT 270V330 9999 // OVC043/// 06/M01 Q1024
19:50
V
6 °C 10 km+ 5.600 ft 330° 330° 8 kt METAR EDXW 221750Z AUTO 33008KT 9999 // SCT048/// BKN056/// BKN074/// 06/M01 Q1024
19:20
V
6 °C 10 km+ 7.200 ft 310° 310° 13 kt METAR EDXW 221720Z AUTO 31013KT 9999 // BKN072/// 06/M02 Q1024
18:50
V
7 °C 10 km+ 6.100 ft 320° 320° 14 kt METAR EDXW 221650Z AUTO 32014KT 9999 // FEW051/// BKN061/// 07/M02 Q1024
18:20
V
8 °C 10 km+ 5.900 ft 350° 350° 11 kt METAR EDXW 221620Z AUTO 35011KT 9999 // BKN059/// OVC069/// 08/M05 Q1024
17:50
V
8 °C 10 km+ - 040° 040° 7 kt METAR EDXW 221550Z 04007KT 010V070 CAVOK 08/M06 Q1024
17:20
V
9 °C 10 km+ - 050° 050° 9 kt METAR EDXW 221520Z 05009KT CAVOK 09/M04 Q1024
16:50
V
8 °C 10 km+ - 060° 060° 8 kt METAR EDXW 221450Z 06008KT CAVOK 08/M05 Q1024
16:20
V
7 °C 10 km+ - 060° 060° 6 kt METAR EDXW 221420Z 06006KT 030V090 CAVOK 07/M05 Q1025
15:50
V
7 °C 10 km+ - 070° 070° 7 kt METAR EDXW 221350Z 07007KT 050V120 CAVOK 07/M06 Q1025
15:20
V
8 °C 10 km+ - 070° 070° 8 kt METAR EDXW 221320Z 07008KT 030V110 CAVOK 08/M04 Q1025
14:50
V
8 °C 10 km+ - 070° 070° 9 kt METAR EDXW 221250Z 07009KT 050V110 CAVOK 08/M04 Q1025
14:20
V
7 °C 10 km+ - 080° 080° 12 kt METAR EDXW 221220Z 08012KT CAVOK 07/M05 Q1025
13:50
V
7 °C 10 km+ - 070° 070° 15 kt METAR EDXW 221150Z 07015KT CAVOK 07/M04 Q1026
13:20
V
8 °C 10 km+ - 070° 070° 16 kt METAR EDXW 221120Z 07016KT CAVOK 08/M05 Q1026
12:50
V
7 °C 10 km+ - 070° 070° 15 kt METAR EDXW 221050Z 07015KT CAVOK 07/M06 Q1026
12:20
V
7 °C 10 km+ - 060° 060° 15 kt METAR EDXW 221020Z 06015KT CAVOK 07/M04 Q1026
11:50
V
7 °C 10 km+ - 060° 060° 17 kt METAR EDXW 220950Z 06017KT CAVOK 07/M05 Q1026
11:20
V
6 °C 10 km+ - 050° 050° 18 kt METAR EDXW 220920Z 05018KT CAVOK 06/M05 Q1026
10:50
V
6 °C 10 km+ - 040° 040° 18 kt METAR EDXW 220850Z 04018KT CAVOK 06/M04 Q1026
10:20
V
5 °C 10 km+ - 040° 040° 16 - 26 kt METAR EDXW 220820Z 04016G26KT CAVOK 05/M03 Q1026
09:50
V
5 °C 10 km+ - 030° 030° 16 kt METAR EDXW 220750Z 03016KT CAVOK 05/M03 Q1026
09:20
V
5 °C 10 km+ - 040° 040° 17 kt METAR EDXW 220720Z AUTO 04017KT 9999 // NCD 05/M03 Q1026
08:50
V
5 °C 10 km+ - 040° 040° 16 kt METAR EDXW 220650Z AUTO 04016KT 9999 // NCD 05/M03 Q1026
08:20
V
4 °C 10 km+ - 040° 040° 17 kt METAR EDXW 220620Z AUTO 04017KT 9999 // FEW140/// 04/M03 Q1026
07:50
V
4 °C 10 km+ - 030° 030° 13 kt METAR EDXW 220550Z AUTO 03013KT 9999 // SCT140/// 04/M02 Q1026
07:20
V
3 °C 10 km+ - 030° 030° 10 kt METAR EDXW 220520Z AUTO 03010KT 9999 // SCT130/// 03/M00 Q1026
06:50
V
3 °C 10 km+ 15.000 ft 020° 020° 10 kt METAR EDXW 220450Z AUTO 02010KT 9999 // BKN150/// 03/M02 Q1026
06:20
V
4 °C 10 km+ 15.000 ft 020° 020° 10 kt METAR EDXW 220420Z AUTO 02010KT 9999 // BKN150/// OVC180/// 04/M03 Q1026
05:50
V
3 °C 10 km+ 16.000 ft 010° 010° 8 kt METAR EDXW 220350Z AUTO 01008KT 9999 // BKN160/// BKN220/// 03/M04 Q1026
05:20
V
3 °C 10 km+ 18.000 ft 020° 020° 8 kt METAR EDXW 220320Z AUTO 02008KT 9999 // SCT150/// BKN180/// BKN250/// 03/M04 Q1027
04:50
V
4 °C 10 km+ 15.000 ft 020° 020° 8 kt METAR EDXW 220250Z AUTO 02008KT 9999 // BKN150/// BKN180/// 04/M02 Q1027
04:20
V
3 °C 10 km+ 19.000 ft 030° 030° 7 kt METAR EDXW 220220Z AUTO 03007KT 9999 // SCT150/// BKN190/// 03/M03 Q1027
03:50
V
5 °C 10 km+ 15.000 ft 040° 040° 9 kt METAR EDXW 220150Z AUTO 04009KT 9999 // OVC150/// 05/M03 Q1027
03:20
V
5 °C 10 km+ 16.000 ft 050° 050° 10 kt METAR EDXW 220120Z AUTO 05010KT 9999 // BKN160/// 05/M04 Q1027
02:50
V
5 °C 10 km+ 15.000 ft 060° 060° 11 kt METAR EDXW 220050Z AUTO 06011KT 9999 // BKN150/// BKN170/// BKN210/// 05/M03 Q1027
02:20
V
5 °C 10 km+ - 060° 060° 10 kt METAR EDXW 220020Z AUTO 06010KT 9999 // SCT160/// 05/M03 Q1027
01:50
V
5 °C 10 km+ 20.000 ft 050° 050° 11 kt METAR EDXW 212350Z AUTO 05011KT 9999 // SCT170/// BKN200/// 05/M02 Q1028
01:20
V
5 °C 10 km+ 19.000 ft 070° 070° 11 kt METAR EDXW 212320Z AUTO 07011KT 9999 // BKN190/// 05/M02 Q1028
00:50
V
6 °C 10 km+ 19.000 ft 070° 070° 11 kt METAR EDXW 212250Z AUTO 07011KT 9999 // BKN190/// 06/M02 Q1028
00:20
V
6 °C 10 km+ 18.000 ft 070° 070° 11 kt METAR EDXW 212220Z AUTO 07011KT 9999 // OVC180/// 06/M03 Q1028

21 de abril de 2024

Hora Código Tiempo Temp. Visibilidad Cielo nuboso Viento METAR/SPECI
23:50
V
6 °C 10 km+ 18.000 ft 080° 080° 10 kt METAR EDXW 212150Z AUTO 08010KT 9999 // BKN180/// 06/M02 Q1028
23:20
V
6 °C 10 km+ 18.000 ft 080° 080° 10 kt METAR EDXW 212120Z AUTO 08010KT 9999 // BKN180/// 06/M02 Q1027
22:50
V
6 °C 10 km+ 17.000 ft 080° 080° 11 kt METAR EDXW 212050Z AUTO 08011KT 9999 // OVC170/// 06/M02 Q1027
22:20
V
6 °C 10 km+ - 080° 080° 13 kt METAR EDXW 212020Z 08013KT CAVOK 06/M01 Q1027
21:50
V
7 °C 10 km+ - 080° 080° 13 kt METAR EDXW 211950Z 08013KT CAVOK 07/M01 Q1027
21:20
V
7 °C 10 km+ - 090° 090° 13 kt METAR EDXW 211920Z 09013KT 9999 VCSH NSC 07/M01 Q1027
20:50
V
8 °C 10 km+ - 020° 020° 7 kt METAR EDXW 211850Z 02007KT 9999 VCSH FEW048CB 08/00 Q1027
20:20
V
8 °C 10 km+ - 360° 360° 9 kt METAR EDXW 211820Z 36009KT 9999 VCSH SCT049CB 08/02 Q1027
19:50
V
8 °C 10 km+ - 350° 350° 13 kt METAR EDXW 211750Z 35013KT CAVOK 08/02 Q1027
19:20
V
8 °C 10 km+ - 350° 350° 12 kt METAR EDXW 211720Z 35012KT 9999 VCSH SCT050CB 08/02 Q1027
18:50
V
9 °C 10 km+ - 360° 360° 14 kt METAR EDXW 211650Z 36014KT CAVOK 09/01 Q1026
18:20
V
9 °C 10 km+ - 350° 350° 17 kt METAR EDXW 211620Z 35017KT CAVOK 09/02 Q1026
17:50
V
9 °C 10 km+ - 350° 350° 15 kt METAR EDXW 211550Z 35015KT CAVOK 09/01 Q1026
17:20
V
9 °C 10 km+ - 340° 340° 18 kt METAR EDXW 211520Z 34018KT CAVOK 09/01 Q1027
16:50
V
9 °C 10 km+ - 340° 340° 16 kt METAR EDXW 211450Z 34016KT 9999 FEW040 09/02 Q1027
16:20
V
9 °C 10 km+ - 340° 340° 17 kt METAR EDXW 211420Z 34017KT 9999 FEW034 09/02 Q1027
15:50
V
10 °C 10 km+ - 330° 330° 14 kt METAR EDXW 211350Z 33014KT 9999 FEW043 10/04 Q1027
15:20
V
10 °C 10 km+ - 330° 330° 12 kt METAR EDXW 211320Z 33012KT 310V020 9999 FEW040 10/03 Q1027
14:50
V
11 °C 10 km+ - 040° 040° 10 kt METAR EDXW 211250Z 04010KT 010V080 CAVOK 11/M01 Q1027
14:20
V
10 °C 10 km+ - 060° 060° 10 kt METAR EDXW 211220Z 06010KT 030V090 CAVOK 10/M03 Q1027
13:50
V
9 °C 10 km+ - 050° 050° 11 kt METAR EDXW 211150Z 05011KT CAVOK 09/M02 Q1027
13:20
V
10 °C 10 km+ - 040° 040° 10 kt METAR EDXW 211120Z 04010KT CAVOK 10/M01 Q1027
12:50
V
9 °C 10 km+ - 040° 040° 10 kt METAR EDXW 211050Z 04010KT CAVOK 09/M00 Q1027
12:20
V
9 °C 10 km+ - 040° 040° 10 kt METAR EDXW 211020Z 04010KT 9999 FEW028 09/02 Q1027
11:50
V
8 °C 10 km+ - 050° 050° 11 kt METAR EDXW 210950Z 05011KT 9999 FEW020 08/03 Q1027
11:20
V
8 °C 10 km+ - 050° 050° 10 kt METAR EDXW 210920Z 05010KT CAVOK 08/05 Q1027
10:50
V
7 °C 10 km+ - 050° 050° 11 kt METAR EDXW 210850Z 05011KT 9999 FEW016 07/04 Q1027
10:20
V
7 °C 10 km+ - 040° 040° 12 kt METAR EDXW 210820Z 04012KT 9999 FEW012 07/04 Q1027
09:50
V
7 °C 10 km+ - 040° 040° 10 kt METAR EDXW 210750Z 04010KT 9999 FEW011 07/04 Q1026
09:20
V
6 °C 10 km+ - 050° 050° 10 kt METAR EDXW 210720Z AUTO 05010KT 9999 // FEW011/// 06/04 Q1026
08:50
V
6 °C 10 km+ - 060° 060° 11 kt METAR EDXW 210650Z AUTO 06011KT 9999 // FEW049/// SCT063/// 06/04 Q1026
08:20
V
5 °C 10 km+ 4.500 ft 060° 060° 10 kt METAR EDXW 210620Z AUTO 06010KT 9999 // SCT038/// BKN045/// BKN066/// 05/04 Q1025
07:50
V
5 °C 10 km+ 4.400 ft 050° 050° 10 kt METAR EDXW 210550Z AUTO 05010KT 9999 // FEW008/// BKN044/// BKN057/// 05/04 Q1025
07:20
V
5 °C 10 km+ - 070° 070° 11 kt METAR EDXW 210520Z AUTO 07011KT 9999 // FEW008/// 05/03 Q1025
06:50
V
4 °C 10 km+ - 070° 070° 11 kt METAR EDXW 210450Z AUTO 07011KT 9999 // FEW008/// 04/03 Q1024
06:20
V
4 °C 10 km+ - 070° 070° 11 kt METAR EDXW 210420Z AUTO 07011KT 9999 // SCT008/// 04/03 Q1024
05:50
I
4 °C 10 km+ 800 ft 070° 070° 11 kt METAR EDXW 210350Z AUTO 07011KT 9999 // BKN008/// BKN044/// 04/03 Q1023
05:20
V
4 °C 10 km+ 4.200 ft 060° 060° 10 kt METAR EDXW 210320Z AUTO 06010KT 9999 // FEW011/// SCT013/// BKN042/// 04/03 Q1023
04:50
M
5 °C 10 km+ 1.500 ft 040° 040° 9 kt METAR EDXW 210250Z AUTO 04009KT 9999 // OVC015/// 05/03 Q1023
04:20
M
4 °C 10 km+ 2.000 ft 040° 040° 6 kt METAR EDXW 210220Z AUTO 04006KT 9999 // BKN020/// OVC052/// 04/02 Q1023
03:50
M
4 °C 10 km+ 2.300 ft 050° 050° 5 kt METAR EDXW 210150Z AUTO 05005KT 9999 // OVC023/// 04/02 Q1022
03:20
V
3 °C 10 km+ 3.400 ft 070° 070° 5 kt METAR EDXW 210120Z AUTO 07005KT 9999 // SCT028/// BKN034/// 03/01 Q1022
02:50
V
2 °C 10 km+ - 070° 070° 4 kt METAR EDXW 210050Z AUTO 07004KT 9999 // FEW035/// 02/01 Q1022
02:20
V
2 °C 10 km+ - 080° 080° 4 kt METAR EDXW 210020Z AUTO 08004KT 9999 // NCD 02/00 Q1021
01:50
V
3 °C 10 km+ - 100° 100° 6 kt METAR EDXW 202350Z AUTO 10006KT 9999 // NCD 03/01 Q1021
01:20
V
3 °C 10 km+ - 110° 110° 7 kt METAR EDXW 202320Z AUTO 11007KT 9999 // NCD 03/01 Q1020
00:50
V
3 °C 10 km+ - 110° 110° 6 kt METAR EDXW 202250Z AUTO 11006KT 9999 // NCD 03/01 Q1020
00:20
V
3 °C 10 km+ - 100° 100° 6 kt METAR EDXW 202220Z AUTO 10006KT 9999 // NCD 03/00 Q1019

20 de abril de 2024

Hora Código Tiempo Temp. Visibilidad Cielo nuboso Viento METAR/SPECI
23:50
V
3 °C 10 km+ - 100° 100° 8 kt METAR EDXW 202150Z AUTO 10008KT 9999 // NCD 03/00 Q1019
23:20
V
2 °C 10 km+ - 070° 070° 3 kt METAR EDXW 202120Z AUTO 07003KT 9999 // NCD 02/M01 Q1019
22:50
V
3 °C 10 km+ - 250° 250° 4 kt METAR EDXW 202050Z AUTO 25004KT 230V330 9999 // FEW041/// SCT072/// 03/M01 Q1018
22:20
V
4 °C 10 km+ 4.800 ft 280° 280° 10 kt METAR EDXW 202020Z AUTO 28010KT 9999 // FEW013/// BKN048/// OVC054/// 04/00 Q1018
21:50
V
5 °C 10 km+ 7.200 ft 320° 320° 10 kt METAR EDXW 201950Z AUTO 32010KT 9999 // FEW039/// OVC072/// 05/M00 Q1018
21:20
V
5 °C 10 km+ 7.400 ft 310° 310° 12 kt METAR EDXW 201920Z AUTO 31012KT 9999 // OVC074/// 05/M00 Q1018
20:50
V
6 °C 10 km+ 6.800 ft 320° 320° 14 kt METAR EDXW 201850Z AUTO 32014KT 9999 // FEW033/// SCT038/// OVC068/// 06/00 Q1018
20:20
V
6 °C 10 km+ 6.700 ft 320° 320° 13 kt METAR EDXW 201820Z AUTO 32013KT 9999 // FEW036/// SCT054/// OVC067/// 06/M00 Q1018
19:50
V
6 °C 10 km+ 3.700 ft 330° 330° 14 kt METAR EDXW 201750Z AUTO 33014KT 9999 // BKN037/// BKN042/// OVC066/// 06/M00 Q1018
19:20
M
5 °C 7 km 2.900 ft 350° 350° 14 kt METAR EDXW 201720Z AUTO 35014KT 310V010 7000 // FEW022/// BKN029/// OVC040/// 05/01 Q1018
18:50
V
6 °C 10 km+ 3.200 ft 330° 330° 16 kt METAR EDXW 201650Z AUTO 33016KT 9999 // BKN032/// OVC052/// 06/01 Q1018
18:20
M
6 °C 10 km+ 2.200 ft 340° 340° 11 kt METAR EDXW 201620Z AUTO 34011KT 9999 // SCT019/// OVC022/// 06/02 Q1018
17:50
M
6 °C 10 km+ 3.000 ft 340° 340° 10 kt METAR EDXW 201550Z 34010KT 9999 -RA BKN030 06/03 Q1019
17:20
M
5 °C 10 km+ 2.200 ft 340° 340° 19 kt METAR EDXW 201520Z 34019KT 9999 BKN022 BKN030 05/03 Q1019
16:50
V
8 °C 10 km+ - 300° 300° 12 kt METAR EDXW 201450Z 30012KT 9999 FEW022 08/02 Q1019
16:20
V
8 °C 10 km+ - 300° 300° 13 kt METAR EDXW 201420Z 30013KT 9999 FEW023 08/02 Q1019
15:50
V
8 °C 10 km+ - 300° 300° 12 kt METAR EDXW 201350Z 30012KT 9999 FEW030 08/02 Q1019
15:20
V
8 °C 10 km+ - 310° 310° 10 kt METAR EDXW 201320Z 31010KT CAVOK 08/00 Q1019
14:50
V
8 °C 10 km+ - 320° 320° 9 kt METAR EDXW 201250Z 32009KT CAVOK 08/M00 Q1019
14:20
V
8 °C 10 km+ - 330° 330° 10 kt METAR EDXW 201220Z 33010KT CAVOK 08/M00 Q1019
13:50
V
8 °C 10 km+ - 310° 310° 8 kt METAR EDXW 201150Z 31008KT CAVOK 08/01 Q1019
13:20
V
8 °C 10 km+ - 320° 320° 9 kt METAR EDXW 201120Z 32009KT CAVOK 08/M00 Q1019
12:50
V
8 °C 10 km+ - 340° 340° 8 kt METAR EDXW 201050Z 34008KT 310V040 CAVOK 08/M00 Q1018
12:20
V
8 °C 10 km+ - 010° 010° 7 kt METAR EDXW 201020Z 01007KT 320V050 CAVOK 08/02 Q1018
11:50
V
7 °C 10 km+ - 050° 050° 7 kt METAR EDXW 200950Z 05007KT 350V080 CAVOK 07/01 Q1018
11:20
V
7 °C 10 km+ - 050° 050° 7 kt METAR EDXW 200920Z 05007KT CAVOK 07/01 Q1018
10:50
V
6 °C 10 km+ - 050° 050° 7 kt METAR EDXW 200850Z 05007KT CAVOK 06/01 Q1018
10:20
V
6 °C 10 km+ - 030° 030° 7 kt METAR EDXW 200820Z 03007KT CAVOK 06/01 Q1017
09:50
V
6 °C 10 km+ - 050° 050° 6 kt METAR EDXW 200750Z 05006KT CAVOK 06/02 Q1017
09:20
V
5 °C 10 km+ - 040° 040° 7 kt METAR EDXW 200720Z 04007KT CAVOK 05/02 Q1017
08:50
V
5 °C 10 km+ - 050° 050° 8 kt METAR EDXW 200650Z 05008KT CAVOK 05/02 Q1016
08:20
V
5 °C 10 km+ - 050° 050° 8 kt METAR EDXW 200620Z 05008KT CAVOK 05/02 Q1016
07:50
V
5 °C 10 km+ - 030° 030° 7 kt METAR EDXW 200550Z 03007KT CAVOK 05/02 Q1016
Cambiar esta información